Time;durP1;ratioP1;P1;durP2;ratioP2;P2;SDS_P1;SDS_P2;PMS_P1;PMS_P2;Temp;Humidity;BMP_temperature;BMP_pressure;BME280_temperature;BME280_humidity;BME280_pressure;Samples;Min_cycle;Max_cycle;Signal;HPM_P1;HPM_P2
2024/02/14 00:01:30;;;;;;;37.43;23.87;;;7.30;98.30;;;;;;4992761;28;20254;-81
2024/02/14 00:03:57;;;;;;;42.13;26.40;;;7.30;98.30;;;;;;5003582;28;20640;-82
2024/02/14 00:06:24;;;;;;;45.03;29.03;;;7.20;98.40;;;;;;4990368;28;20204;-81
2024/02/14 00:08:52;;;;;;;46.30;29.37;;;7.20;98.50;;;;;;4990478;28;20231;-82
2024/02/14 00:11:20;;;;;;;51.53;30.90;;;7.20;98.70;;;;;;4993487;28;20204;-81
2024/02/14 00:13:47;;;;;;;46.30;28.73;;;7.20;98.80;;;;;;5012143;28;20769;-82
2024/02/14 00:16:14;;;;;;;48.03;30.20;;;7.20;98.80;;;;;;4999593;28;20530;-82
2024/02/14 00:18:41;;;;;;;51.93;30.77;;;7.20;98.90;;;;;;4995979;28;20233;-82
2024/02/14 00:21:09;;;;;;;55.20;31.53;;;7.30;99.00;;;;;;4996537;28;20244;-80
2024/02/14 00:23:36;;;;;;;51.67;33.83;;;7.20;99.10;;;;;;5006144;28;20204;-81
2024/02/14 00:26:04;;;;;;;50.50;30.03;;;7.30;99.20;;;;;;4992184;28;20374;-82
2024/02/14 00:28:31;;;;;;;46.13;27.87;;;7.30;99.30;;;;;;5018014;28;20287;-81
2024/02/14 00:30:59;;;;;;;41.60;27.40;;;7.30;99.30;;;;;;5013343;28;20204;-81
2024/02/14 00:33:26;;;;;;;43.23;28.07;;;7.30;99.30;;;;;;5016587;28;20219;-81
2024/02/14 00:35:53;;;;;;;41.93;27.40;;;7.20;99.20;;;;;;5022001;28;20644;-82
2024/02/14 00:38:20;;;;;;;46.37;30.67;;;7.20;99.20;;;;;;5006295;28;20300;-82
2024/02/14 00:40:48;;;;;;;39.93;27.67;;;7.20;99.20;;;;;;5007737;28;20214;-82
2024/02/14 00:43:15;;;;;;;49.10;30.20;;;7.20;99.20;;;;;;5002253;28;20560;-82
2024/02/14 00:45:42;;;;;;;47.07;27.73;;;7.20;99.30;;;;;;4984191;28;20207;-81
2024/02/14 00:48:09;;;;;;;49.20;29.80;;;7.10;99.30;;;;;;5009560;28;20200;-81
2024/02/14 00:50:37;;;;;;;44.67;29.30;;;7.10;99.30;;;;;;4997314;28;20196;-81
2024/02/14 00:53:05;;;;;;;40.97;27.30;;;7.10;99.30;;;;;;4997382;28;20290;-81
2024/02/14 00:55:32;;;;;;;43.70;28.83;;;7.10;99.20;;;;;;5009031;28;20282;-82
2024/02/14 00:57:59;;;;;;;43.60;27.07;;;7.00;99.20;;;;;;4982909;28;20213;-82
2024/02/14 01:00:26;;;;;;;48.43;28.07;;;7.00;99.20;;;;;;5008074;28;20244;-83
2024/02/14 01:02:55;;;;;;;42.33;26.43;;;6.90;99.20;;;;;;4996131;28;20609;-81
2024/02/14 01:05:23;;;;;;;46.63;27.50;;;6.90;99.20;;;;;;5009562;28;20215;-81
2024/02/14 01:07:50;;;;;;;39.33;26.63;;;6.90;99.20;;;;;;5007177;28;20235;-83
2024/02/14 01:10:18;;;;;;;37.37;25.57;;;6.90;99.20;;;;;;4995251;28;20200;-81
2024/02/14 01:12:46;;;;;;;41.20;27.63;;;6.80;99.20;;;;;;4996491;28;20651;-81
2024/02/14 01:15:13;;;;;;;46.23;30.83;;;6.80;99.20;;;;;;4998076;28;20202;-81
2024/02/14 01:17:40;;;;;;;52.47;32.10;;;6.80;99.30;;;;;;4994552;28;20204;-81
2024/02/14 01:20:08;;;;;;;48.53;28.87;;;6.80;99.30;;;;;;4987568;28;20217;-81
2024/02/14 01:22:36;;;;;;;48.27;29.20;;;6.80;99.40;;;;;;5007617;28;20228;-81
2024/02/14 01:25:04;;;;;;;41.80;27.30;;;6.80;99.40;;;;;;5022929;28;20205;-81
2024/02/14 01:27:32;;;;;;;47.60;31.00;;;6.80;99.40;;;;;;5009298;28;20656;-81
2024/02/14 01:29:59;;;;;;;34.10;23.17;;;6.80;99.40;;;;;;5010893;28;20195;-81
2024/02/14 01:32:29;;;;;;;33.10;22.10;;;6.70;99.70;;;;;;4996079;28;20289;-81
2024/02/14 01:34:57;;;;;;;36.13;24.47;;;6.70;99.40;;;;;;5003817;28;20212;-82
2024/02/14 01:37:24;;;;;;;29.60;20.80;;;6.70;99.30;;;;;;4996588;28;20271;-82
2024/02/14 01:39:51;;;;;;;40.10;25.53;;;6.60;99.30;;;;;;5005715;28;20245;-82
2024/02/14 01:42:20;;;;;;;42.87;25.47;;;6.70;99.40;;;;;;4991833;28;20722;-81
2024/02/14 01:44:47;;;;;;;41.90;28.27;;;6.60;99.40;;;;;;4998036;28;20235;-82
2024/02/14 01:47:14;;;;;;;43.53;26.93;;;6.70;99.40;;;;;;4994784;28;20238;-82
2024/02/14 01:49:44;;;;;;;44.57;27.93;;;6.70;99.40;;;;;;5013977;28;20332;-82
2024/02/14 01:52:12;;;;;;;46.70;27.63;;;6.60;99.40;;;;;;5000583;28;20204;-82
2024/02/14 01:54:39;;;;;;;40.27;25.60;;;6.60;99.40;;;;;;4999728;28;20212;-81
2024/02/14 01:57:10;;;;;;;40.27;25.83;;;6.60;99.40;;;;;;4996011;28;20299;-81
2024/02/14 01:59:38;;;;;;;40.10;25.63;;;6.60;99.40;;;;;;4992266;28;20672;-83
2024/02/14 02:02:09;;;;;;;35.73;23.80;;;6.50;99.20;;;;;;4994957;28;20226;-81
2024/02/14 02:04:36;;;;;;;45.97;28.83;;;6.50;99.30;;;;;;4986801;28;20295;-82
2024/02/14 02:07:04;;;;;;;35.83;23.60;;;6.50;99.40;;;;;;4999213;28;20201;-82
2024/02/14 02:09:32;;;;;;;44.63;26.40;;;6.40;99.40;;;;;;4992805;28;20547;-81
2024/02/14 02:12:00;;;;;;;42.60;27.50;;;6.40;99.50;;;;;;4996151;28;21243;-81
2024/02/14 02:14:29;;;;;;;42.13;27.17;;;6.50;99.50;;;;;;4998043;28;20204;-81
2024/02/14 02:16:56;;;;;;;42.07;23.73;;;6.50;99.50;;;;;;4997899;28;20219;-81
2024/02/14 02:19:24;;;;;;;34.57;22.83;;;6.40;99.70;;;;;;4996170;28;20234;-82
2024/02/14 02:21:52;;;;;;;36.70;23.27;;;6.40;99.50;;;;;;5011498;28;20670;-81
2024/02/14 02:24:19;;;;;;;33.57;23.63;;;6.40;99.50;;;;;;4997075;28;20225;-81
2024/02/14 02:26:46;;;;;;;38.53;25.93;;;6.30;99.40;;;;;;5013569;28;20199;-81
2024/02/14 02:29:15;;;;;;;35.67;24.63;;;6.30;99.50;;;;;;5017339;28;20204;-81
2024/02/14 02:31:42;;;;;;;41.40;24.87;;;6.30;99.50;;;;;;4998196;28;20682;-82
2024/02/14 02:34:10;;;;;;;38.17;24.60;;;6.30;99.50;;;;;;4995117;28;20655;-84
2024/02/14 02:36:40;;;;;;;39.10;25.67;;;6.20;99.60;;;;;;5012989;28;20216;-82
2024/02/14 02:39:08;;;;;;;35.00;23.40;;;6.20;99.60;;;;;;5012609;28;20208;-81
2024/02/14 02:41:35;;;;;;;39.13;23.87;;;6.20;99.60;;;;;;5007735;28;20206;-81
2024/02/14 02:44:05;;;;;;;32.97;22.00;;;6.20;99.60;;;;;;4999678;28;20566;-82
2024/02/14 02:46:32;;;;;;;33.30;22.40;;;6.20;99.60;;;;;;5021156;28;20215;-81
2024/02/14 02:49:00;;;;;;;35.47;22.43;;;6.20;99.60;;;;;;5016562;28;20294;-83
2024/02/14 02:51:27;;;;;;;32.20;21.77;;;6.20;99.50;;;;;;5012739;28;20200;-82
2024/02/14 02:53:55;;;;;;;34.97;22.90;;;6.20;99.50;;;;;;4998300;28;20603;-82
2024/02/14 02:56:22;;;;;;;31.63;22.33;;;6.10;99.50;;;;;;4988895;28;20317;-81
2024/02/14 02:58:49;;;;;;;34.57;22.43;;;6.20;99.50;;;;;;4992045;28;20334;-82
2024/02/14 03:01:16;;;;;;;30.53;22.13;;;6.10;99.50;;;;;;4997735;28;20196;-81
2024/02/14 03:03:44;;;;;;;37.43;24.07;;;6.10;99.60;;;;;;4996733;28;20216;-81
2024/02/14 03:06:12;;;;;;;35.73;24.63;;;6.10;99.60;;;;;;5002432;28;20197;-81
2024/02/14 03:08:39;;;;;;;27.73;18.77;;;6.10;99.60;;;;;;5006255;28;20268;-81
2024/02/14 03:11:07;;;;;;;29.37;20.33;;;6.20;99.70;;;;;;4996167;28;20608;-82
2024/02/14 03:13:35;;;;;;;30.67;21.33;;;6.10;99.70;;;;;;5004340;28;20204;-81
2024/02/14 03:16:04;;;;;;;34.53;22.40;;;6.10;99.60;;;;;;4993886;28;20215;-82
2024/02/14 03:18:32;;;;;;;36.17;23.27;;;6.10;99.50;;;;;;5005687;28;20624;-81
2024/02/14 03:20:59;;;;;;;33.93;22.40;;;6.10;99.50;;;;;;5016916;28;20204;-81
2024/02/14 03:23:27;;;;;;;40.77;25.10;;;6.00;99.50;;;;;;5001674;28;20656;-81
2024/02/14 03:25:55;;;;;;;42.23;27.33;;;6.00;99.60;;;;;;5016411;28;20205;-82
2024/02/14 03:28:23;;;;;;;41.10;25.43;;;6.00;99.70;;;;;;5016074;28;20205;-81
2024/02/14 03:30:50;;;;;;;34.43;23.80;;;6.10;99.80;;;;;;4991742;28;20204;-82
2024/02/14 03:33:17;;;;;;;38.77;25.30;;;6.10;99.90;;;;;;5000437;28;20291;-82
2024/02/14 03:35:45;;;;;;;39.17;26.47;;;6.10;99.90;;;;;;4988975;28;20299;-81
2024/02/14 03:38:14;;;;;;;39.03;25.23;;;6.20;99.90;;;;;;5003037;28;20258;-81
2024/02/14 03:40:42;;;;;;;39.97;24.97;;;6.20;99.90;;;;;;5021242;28;20224;-81
2024/02/14 03:43:11;;;;;;;40.70;24.97;;;6.20;99.80;;;;;;4996558;28;20302;-82
2024/02/14 03:45:39;;;;;;;44.77;26.40;;;6.20;99.80;;;;;;4988884;28;20191;-81
2024/02/14 03:48:06;;;;;;;41.30;27.13;;;6.10;99.80;;;;;;4997322;28;20667;-82
2024/02/14 03:50:33;;;;;;;40.77;25.07;;;6.20;99.90;;;;;;5004516;28;20833;-82
2024/02/14 03:53:03;;;;;;;35.73;24.10;;;6.20;99.90;;;;;;4997270;28;20270;-81
2024/02/14 03:55:30;;;;;;;39.23;25.77;;;6.20;99.90;;;;;;5029114;28;20196;-82
2024/02/14 03:57:57;;;;;;;32.07;23.07;;;6.30;99.90;;;;;;4995099;28;20230;-81
2024/02/14 04:00:25;;;;;;;27.53;19.43;;;6.20;99.90;;;;;;5018614;28;20670;-81
2024/02/14 04:02:53;;;;;;;27.90;19.87;;;6.30;99.90;;;;;;5003538;28;20250;-81
2024/02/14 04:05:20;;;;;;;25.17;17.67;;;6.20;99.90;;;;;;5012963;28;20197;-81
2024/02/14 04:07:51;;;;;;;24.87;18.20;;;6.20;99.80;;;;;;4991369;28;20208;-82
2024/02/14 04:10:19;;;;;;;26.70;18.97;;;6.20;99.70;;;;;;4987349;28;20260;-81
2024/02/14 04:12:47;;;;;;;31.57;21.93;;;6.10;99.60;;;;;;5000943;28;20205;-81
2024/02/14 04:15:14;;;;;;;34.47;19.93;;;6.00;99.40;;;;;;4999197;28;20298;-81
2024/02/14 04:17:41;;;;;;;36.80;23.27;;;6.00;99.40;;;;;;5013319;28;20615;-81
2024/02/14 04:20:09;;;;;;;26.57;19.07;;;6.00;99.30;;;;;;4996572;28;20234;-81
2024/02/14 04:22:36;;;;;;;34.57;23.17;;;5.90;99.30;;;;;;5004913;28;20715;-81
2024/02/14 04:25:04;;;;;;;26.07;17.90;;;5.80;99.30;;;;;;5016693;28;20218;-81
2024/02/14 04:27:31;;;;;;;28.87;18.47;;;5.80;99.30;;;;;;5007968;28;20536;-81
2024/02/14 04:30:01;;;;;;;29.20;20.27;;;5.80;99.40;;;;;;5002194;28;20204;-82
2024/02/14 04:32:28;;;;;;;33.90;21.47;;;5.70;99.30;;;;;;5008437;28;20273;-82
2024/02/14 04:34:59;;;;;;;30.17;20.30;;;5.70;99.40;;;;;;4997004;28;20200;-83
2024/02/14 04:37:27;;;;;;;29.80;21.43;;;5.70;99.50;;;;;;5007722;28;20358;-82
2024/02/14 04:39:55;;;;;;;34.87;23.13;;;5.70;99.40;;;;;;4992473;28;20214;-83
2024/02/14 04:42:23;;;;;;;34.80;21.67;;;5.70;99.40;;;;;;4994267;28;20300;-81
2024/02/14 04:44:54;;;;;;;44.50;21.33;;;5.70;99.40;;;;;;5007649;28;20204;-81
2024/02/14 04:47:26;;;;;;;39.20;19.33;;;5.70;99.40;;;;;;4998900;28;20201;-82
2024/02/14 04:49:54;;;;;;;30.33;15.13;;;5.70;99.40;;;;;;5007387;28;20201;-82
2024/02/14 04:52:22;;;;;;;23.23;14.57;;;5.70;99.30;;;;;;4996078;28;20206;-81
2024/02/14 04:54:50;;;;;;;21.77;16.17;;;5.60;99.30;;;;;;4994392;28;20200;-81
2024/02/14 04:57:20;;;;;;;26.53;18.13;;;5.60;99.30;;;;;;4996189;28;20208;-81
2024/02/14 04:59:48;;;;;;;29.13;19.73;;;5.60;99.30;;;;;;5012146;28;20239;-82
2024/02/14 05:02:22;;;;;;;102.90;14.63;;;5.60;99.20;;;;;;5000529;28;20214;-81
2024/02/14 05:04:52;;;;;;;40.97;11.10;;;5.60;99.10;;;;;;4996847;28;20447;-81
2024/02/14 05:07:20;;;;;;;24.13;16.93;;;5.50;99.00;;;;;;5010924;28;20208;-82
2024/02/14 05:09:52;;;;;;;29.47;18.13;;;5.50;99.10;;;;;;5003065;28;20215;-84
2024/02/14 05:12:20;;;;;;;26.00;18.57;;;5.40;99.10;;;;;;4996995;28;20548;-81
2024/02/14 05:14:57;;;;;;;31.23;19.60;;;5.40;99.20;;;;;;4999372;28;20207;-83
2024/02/14 05:17:32;;;;;;;25.97;16.63;;;5.40;99.30;;;;;;5004196;28;20192;-84
2024/02/14 05:20:08;;;;;;;29.40;19.70;;;5.40;99.40;;;;;;4993898;28;20212;-81
2024/02/14 05:22:45;;;;;;;25.87;17.57;;;5.40;99.40;;;;;;4993145;28;20204;-82
2024/02/14 05:25:20;;;;;;;31.13;15.67;;;5.30;99.30;;;;;;4996114;28;20212;-82
2024/02/14 05:27:52;;;;;;;108.20;19.60;;;5.30;99.30;;;;;;5004533;28;20204;-82
2024/02/14 05:30:20;;;;;;;29.33;16.00;;;5.20;99.20;;;;;;5000233;28;20238;-82
2024/02/14 05:32:52;;;;;;;22.43;16.43;;;5.20;99.10;;;;;;4995912;28;20203;-82
2024/02/14 05:35:21;;;;;;;20.93;15.53;;;5.10;99.10;;;;;;4997022;28;20323;-81
2024/02/14 05:37:54;;;;;;;21.73;16.10;;;5.10;99.10;;;;;;4997572;28;20243;-81
2024/02/14 05:40:27;;;;;;;26.53;18.70;;;5.00;99.20;;;;;;5004783;28;20213;-82
2024/02/14 05:42:56;;;;;;;24.93;15.77;;;5.00;99.20;;;;;;4999398;28;20252;-82
2024/02/14 05:45:25;;;;;;;22.20;15.73;;;5.00;99.10;;;;;;5006763;28;20205;-82
2024/02/14 05:47:58;;;;;;;31.00;18.37;;;4.90;98.90;;;;;;4989194;28;20209;-82
2024/02/14 05:50:36;;;;;;;21.37;15.30;;;4.90;98.90;;;;;;5008891;28;20204;-82
2024/02/14 05:53:12;;;;;;;26.97;16.83;;;4.90;98.90;;;;;;5002098;28;20211;-82
2024/02/14 05:55:43;;;;;;;26.73;18.70;;;4.90;99.00;;;;;;5006718;28;20241;-82
2024/02/14 05:58:15;;;;;;;30.40;20.00;;;4.90;99.00;;;;;;4998397;28;20209;-82
2024/02/14 06:00:55;;;;;;;23.67;15.33;;;4.90;99.20;;;;;;4996390;28;20217;-82
2024/02/14 06:03:37;;;;;;;25.07;16.10;;;5.00;99.30;;;;;;4998845;28;20220;-82
2024/02/14 06:06:15;;;;;;;20.27;14.37;;;5.00;99.30;;;;;;5013736;28;20544;-82
2024/02/14 06:08:50;;;;;;;22.10;16.33;;;5.00;99.20;;;;;;4995682;28;20206;-82
2024/02/14 06:11:24;;;;;;;20.23;14.90;;;5.00;99.10;;;;;;5006018;28;20213;-82
2024/02/14 06:13:56;;;;;;;22.63;15.87;;;5.00;98.90;;;;;;5025916;28;20227;-82
2024/02/14 06:16:34;;;;;;;30.17;19.17;;;4.90;98.80;;;;;;5003334;28;20277;-82
2024/02/14 06:19:09;;;;;;;35.03;19.90;;;4.90;98.90;;;;;;4990609;28;20363;-84
2024/02/14 06:21:48;;;;;;;28.07;19.73;;;4.90;99.10;;;;;;4990856;28;20201;-84
2024/02/14 06:24:18;;;;;;;29.80;18.27;;;5.00;99.30;;;;;;5005624;28;20292;-80
2024/02/14 06:26:49;;;;;;;32.80;19.23;;;5.00;99.30;;;;;;5003412;28;20196;-84
2024/02/14 06:29:21;;;;;;;28.23;17.97;;;5.00;99.20;;;;;;5000517;28;20535;-83
2024/02/14 06:31:54;;;;;;;29.83;16.53;;;5.00;99.30;;;;;;5009655;28;20204;-82
2024/02/14 06:34:29;;;;;;;25.57;17.03;;;5.00;99.30;;;;;;4995681;28;20254;-82
2024/02/14 06:37:04;;;;;;;21.50;14.60;;;4.90;99.20;;;;;;4993633;28;20232;-81
2024/02/14 06:39:33;;;;;;;22.97;15.73;;;4.90;99.10;;;;;;5012677;28;20203;-81
2024/02/14 06:42:06;;;;;;;23.47;18.10;;;4.90;99.00;;;;;;4998847;28;20231;-82
2024/02/14 06:44:44;;;;;;;25.67;17.87;;;4.80;99.00;;;;;;4993500;28;20232;-82
2024/02/14 06:47:15;;;;;;;27.43;17.73;;;4.80;99.00;;;;;;5002034;28;20212;-82
2024/02/14 06:49:45;;;;;;;30.90;17.57;;;4.80;99.00;;;;;;4996230;28;20216;-82
2024/02/14 06:52:20;;;;;;;24.87;16.33;;;4.80;99.20;;;;;;4993645;28;20227;-81
2024/02/14 06:54:48;;;;;;;22.60;16.00;;;4.90;99.30;;;;;;5006863;28;20627;-83
2024/02/14 06:57:25;;;;;;;24.63;16.93;;;4.90;99.30;;;;;;5010542;28;20218;-81
2024/02/14 07:00:08;;;;;;;24.97;17.13;;;5.00;99.40;;;;;;4996177;28;20247;-82
2024/02/14 07:02:39;;;;;;;24.30;17.73;;;5.10;99.40;;;;;;4996468;28;20208;-82
2024/02/14 07:05:15;;;;;;;26.23;16.50;;;5.20;99.20;;;;;;4994593;28;20655;-82
2024/02/14 07:07:45;;;;;;;19.97;15.30;;;5.30;99.10;;;;;;4997458;28;20655;-82
2024/02/14 07:10:18;;;;;;;27.10;17.40;;;5.40;99.00;;;;;;5017375;28;20200;-82
2024/02/14 07:12:54;;;;;;;22.70;15.73;;;5.50;99.10;;;;;;4997500;28;20232;-82
2024/02/14 07:15:28;;;;;;;22.63;15.97;;;5.60;99.30;;;;;;4991163;28;20219;-82
2024/02/14 07:18:03;;;;;;;27.43;17.03;;;5.80;98.90;;;;;;4988981;28;20220;-82
2024/02/14 07:20:46;;;;;;;27.70;18.50;;;5.90;98.80;;;;;;5002365;28;20211;-82
2024/02/14 07:23:28;;;;;;;27.90;16.33;;;6.10;98.80;;;;;;5015777;28;20258;-82
2024/02/14 07:25:56;;;;;;;23.33;16.77;;;6.40;98.70;;;;;;4989294;28;20232;-82
2024/02/14 07:28:27;;;;;;;23.20;16.57;;;6.60;98.40;;;;;;5002133;28;20271;-83
2024/02/14 07:30:56;;;;;;;26.20;17.27;;;6.70;98.20;;;;;;4996070;28;20211;-83
2024/02/14 07:33:24;;;;;;;25.47;18.00;;;6.80;98.10;;;;;;4998941;28;20295;-82
2024/02/14 07:35:54;;;;;;;26.70;17.70;;;7.00;98.10;;;;;;5044842;28;20231;-83
2024/02/14 07:38:29;;;;;;;25.63;18.47;;;7.20;98.10;;;;;;4996170;28;20267;-83
2024/02/14 07:40:58;;;;;;;23.33;17.20;;;7.40;98.10;;;;;;4988117;28;20275;-82
2024/02/14 07:43:29;;;;;;;23.07;15.87;;;7.60;98.00;;;;;;5009127;28;20217;-83
2024/02/14 07:45:58;;;;;;;21.87;16.83;;;7.90;97.60;;;;;;5008404;28;20207;-83
2024/02/14 07:49:06;;;;;;;27.80;19.90;;;8.20;97.20;;;;;;4996406;28;20301;-83
2024/02/14 07:51:37;;;;;;;31.10;19.90;;;8.50;96.70;;;;;;5003094;28;20226;-82
2024/02/14 07:54:07;;;;;;;29.17;19.73;;;8.80;96.40;;;;;;5004992;28;20219;-83
2024/02/14 07:56:41;;;;;;;35.07;19.97;;;9.10;96.10;;;;;;5004927;28;20311;-82
2024/02/14 07:59:10;;;;;;;31.67;21.40;;;9.20;95.90;;;;;;5014603;28;20256;-83
2024/02/14 08:01:43;;;;;;;36.77;20.47;;;9.30;95.80;;;;;;5011516;28;20271;-82
2024/02/14 08:04:16;;;;;;;29.57;20.37;;;9.30;95.80;;;;;;5000888;28;20226;-82
2024/02/14 08:06:50;;;;;;;31.23;20.30;;;9.30;95.90;;;;;;4993814;28;20202;-82
2024/02/14 08:09:18;;;;;;;32.90;21.07;;;9.30;96.10;;;;;;4994011;28;20298;-82
2024/02/14 08:11:46;;;;;;;32.83;20.73;;;9.30;96.40;;;;;;5000286;28;20290;-83
2024/02/14 08:14:14;;;;;;;33.90;21.60;;;9.30;96.50;;;;;;4997125;28;20193;-82
2024/02/14 08:16:42;;;;;;;33.50;21.33;;;9.30;96.60;;;;;;5017042;28;20211;-82
2024/02/14 08:19:11;;;;;;;34.10;22.17;;;9.30;96.80;;;;;;5015270;28;20207;-83
2024/02/14 08:21:41;;;;;;;29.40;19.50;;;9.40;96.90;;;;;;5014182;28;20202;-82
2024/02/14 08:24:12;;;;;;;29.40;20.60;;;9.50;97.00;;;;;;4995117;28;20218;-82
2024/02/14 08:26:40;;;;;;;30.60;18.13;;;9.60;97.00;;;;;;4992416;28;20204;-82
2024/02/14 08:29:13;;;;;;;26.97;18.20;;;9.60;97.00;;;;;;5003508;28;20301;-82
2024/02/14 08:31:51;;;;;;;24.53;17.60;;;9.70;97.00;;;;;;5009452;28;20214;-83
2024/02/14 08:34:23;;;;;;;26.43;18.73;;;9.90;97.00;;;;;;4998294;28;20645;-82
2024/02/14 08:36:59;;;;;;;23.33;17.97;;;10.00;97.00;;;;;;5006774;28;20215;-82
2024/02/14 08:39:28;;;;;;;29.93;20.43;;;10.10;96.90;;;;;;5001376;28;20294;-82
2024/02/14 08:41:56;;;;;;;31.73;20.33;;;10.30;96.80;;;;;;4993681;28;20216;-82
2024/02/14 08:44:25;;;;;;;30.03;20.73;;;10.40;96.60;;;;;;5023708;28;20344;-82
2024/02/14 08:47:01;;;;;;;35.67;23.40;;;10.50;96.60;;;;;;5002872;28;20203;-82
2024/02/14 08:49:29;;;;;;;36.37;24.37;;;10.60;96.40;;;;;;4996757;28;20201;-82
2024/02/14 08:51:57;;;;;;;35.07;24.27;;;10.70;96.40;;;;;;5002874;28;20301;-82
2024/02/14 08:54:28;;;;;;;28.53;21.40;;;10.90;96.40;;;;;;4993755;28;20224;-82
2024/02/14 08:56:59;;;;;;;41.23;26.93;;;11.00;96.30;;;;;;4991396;28;20225;-82
2024/02/14 08:59:48;;;;;;;49.50;32.83;;;11.10;96.10;;;;;;4999426;28;20230;-82
2024/02/14 09:02:16;;;;;;;33.40;23.03;;;11.20;95.90;;;;;;5015142;28;20207;-82
2024/02/14 09:04:47;;;;;;;31.47;20.17;;;11.40;95.70;;;;;;5013910;28;20219;-81
2024/02/14 09:07:21;;;;;;;22.97;15.83;;;11.40;95.20;;;;;;4989856;28;20215;-83
2024/02/14 09:09:50;;;;;;;27.77;17.63;;;11.50;95.10;;;;;;4990838;28;20303;-83
2024/02/14 09:12:21;;;;;;;22.37;15.97;;;11.60;94.60;;;;;;5007246;28;20283;-83
2024/02/14 09:14:53;;;;;;;19.80;15.43;;;11.60;94.40;;;;;;4988290;28;20212;-82
2024/02/14 09:17:21;;;;;;;27.23;17.33;;;11.60;94.20;;;;;;4995780;28;20224;-82
2024/02/14 09:19:52;;;;;;;18.43;14.00;;;11.60;94.20;;;;;;5000861;28;20219;-82
2024/02/14 09:22:22;;;;;;;18.10;13.27;;;11.70;94.40;;;;;;4996129;28;20208;-82
2024/02/14 09:24:52;;;;;;;16.87;13.80;;;11.80;94.40;;;;;;5007425;28;21116;-82
2024/02/14 09:27:23;;;;;;;22.37;12.67;;;11.90;94.40;;;;;;4997386;28;20594;-81
2024/02/14 09:29:55;;;;;;;21.30;13.93;;;11.90;94.10;;;;;;5007664;28;20313;-82
2024/02/14 09:32:23;;;;;;;18.40;14.07;;;12.00;94.00;;;;;;4995386;28;20199;-82
2024/02/14 09:34:51;;;;;;;19.80;13.80;;;12.10;93.80;;;;;;5008044;28;20547;-81
2024/02/14 09:37:23;;;;;;;17.00;13.67;;;12.20;93.70;;;;;;5043192;28;20204;-79
2024/02/14 09:39:54;;;;;;;21.53;14.47;;;12.20;93.40;;;;;;4999923;28;20294;-80
2024/02/14 09:42:31;;;;;;;22.10;15.97;;;12.30;93.30;;;;;;4989369;28;20264;-80
2024/02/14 09:45:07;;;;;;;27.03;15.93;;;12.30;92.90;;;;;;4989253;28;20666;-80
2024/02/14 09:47:43;;;;;;;22.57;16.47;;;12.30;93.10;;;;;;5018253;28;20541;-81
2024/02/14 09:50:12;;;;;;;23.07;16.90;;;12.30;93.20;;;;;;4994152;28;20240;-82
2024/02/14 09:52:54;;;;;;;23.00;17.23;;;12.40;93.40;;;;;;4992353;28;20207;-79
2024/02/14 09:55:33;;;;;;;26.57;18.90;;;12.50;93.50;;;;;;4996308;28;20306;-81
2024/02/14 09:58:06;;;;;;;22.90;18.13;;;12.60;93.50;;;;;;5004269;28;20290;-82
2024/02/14 10:00:36;;;;;;;27.30;19.00;;;12.80;93.50;;;;;;4995894;28;20235;-82
2024/02/14 10:03:08;;;;;;;22.00;16.73;;;12.90;93.50;;;;;;5006378;28;20297;-83
2024/02/14 10:05:46;;;;;;;23.87;18.13;;;13.00;93.40;;;;;;5013397;28;20268;-82
2024/02/14 10:08:27;;;;;;;26.17;18.67;;;13.00;92.90;;;;;;4993044;28;20209;-80
2024/02/14 10:11:15;;;;;;;24.70;18.73;;;13.00;92.70;;;;;;4996444;28;20670;-80
2024/02/14 10:13:47;;;;;;;25.57;19.47;;;13.00;92.80;;;;;;4997927;28;20205;-79
2024/02/14 10:16:21;;;;;;;29.00;19.90;;;13.00;92.90;;;;;;5016371;28;20294;-81
2024/02/14 10:18:53;;;;;;;24.67;18.57;;;13.10;93.00;;;;;;5052966;28;20640;-80
2024/02/14 10:21:24;;;;;;;28.13;20.83;;;13.20;93.10;;;;;;5040202;28;20204;-81
2024/02/14 10:23:56;;;;;;;27.40;20.40;;;13.30;93.00;;;;;;5002573;28;20670;-80
2024/02/14 10:26:29;;;;;;;33.03;21.77;;;13.30;92.30;;;;;;5038957;28;20652;-81
2024/02/14 10:29:03;;;;;;;31.00;21.47;;;13.30;92.20;;;;;;5021364;28;20280;-81
2024/02/14 10:31:36;;;;;;;27.87;21.30;;;13.20;92.10;;;;;;5007579;28;20207;-80
2024/02/14 10:34:07;;;;;;;30.73;22.27;;;13.20;92.40;;;;;;5002362;28;20218;-80
2024/02/14 10:36:40;;;;;;;28.90;23.50;;;13.30;92.50;;;;;;5007499;28;20211;-81
2024/02/14 10:39:15;;;;;;;1999.90;917.53;;;13.30;92.50;;;;;;4999647;28;20199;-80
2024/02/14 10:41:46;;;;;;;222.03;135.07;;;13.40;92.80;;;;;;4996574;28;20265;-82
2024/02/14 10:44:18;;;;;;;590.17;418.80;;;13.50;92.80;;;;;;5022334;28;20204;-80
2024/02/14 10:46:55;;;;;;;132.50;73.57;;;13.60;92.80;;;;;;5010112;28;20579;-81
2024/02/14 10:49:29;;;;;;;31.70;22.77;;;13.70;92.50;;;;;;4992796;28;20635;-80
2024/02/14 10:52:04;;;;;;;51.33;30.97;;;13.80;92.40;;;;;;4995112;28;20220;-82
2024/02/14 10:54:37;;;;;;;28.50;21.50;;;13.90;92.30;;;;;;5024438;28;20203;-81
2024/02/14 10:57:16;;;;;;;29.23;22.50;;;14.00;92.10;;;;;;5010393;28;20544;-80
2024/02/14 10:59:49;;;;;;;29.53;22.50;;;14.00;91.90;;;;;;5046870;28;20241;-80
2024/02/14 11:02:22;;;;;;;29.77;22.03;;;14.10;92.00;;;;;;5085640;28;20201;-80
2024/02/14 11:04:54;;;;;;;32.47;22.93;;;14.20;92.00;;;;;;5083163;28;20254;-81
2024/02/14 11:07:33;;;;;;;30.93;22.77;;;14.40;91.90;;;;;;5083510;28;20201;-80
2024/02/14 11:10:14;;;;;;;31.87;22.80;;;14.50;91.60;;;;;;5076103;28;20203;-81
2024/02/14 11:12:44;;;;;;;40.67;26.60;;;14.70;91.50;;;;;;5069876;28;20263;-80
2024/02/14 11:15:18;;;;;;;32.50;21.77;;;14.80;91.40;;;;;;5080933;28;20236;-80
2024/02/14 11:17:54;;;;;;;30.37;21.73;;;15.00;91.00;;;;;;5086763;28;20516;-80
2024/02/14 11:20:36;;;;;;;26.40;19.00;;;15.00;90.80;;;;;;5065967;28;20248;-80
2024/02/14 11:23:15;;;;;;;24.30;19.53;;;15.20;90.80;;;;;;5075933;28;20292;-80
2024/02/14 11:26:06;;;;;;;27.07;19.87;;;15.30;90.80;;;;;;5072969;28;20233;-81
2024/02/14 11:28:42;;;;;;;24.30;19.10;;;15.40;90.70;;;;;;5077091;28;20205;-81
2024/02/14 11:31:17;;;;;;;27.47;20.53;;;15.50;90.50;;;;;;5075630;28;20205;-80
2024/02/14 11:33:50;;;;;;;26.30;20.33;;;15.50;90.20;;;;;;5098306;28;20206;-81
2024/02/14 11:36:23;;;;;;;27.93;20.10;;;15.60;90.10;;;;;;5095153;28;20228;-81
2024/02/14 11:38:55;;;;;;;25.10;19.07;;;15.60;89.90;;;;;;5097098;28;20204;-80
2024/02/14 11:41:32;;;;;;;24.67;17.77;;;15.60;89.30;;;;;;5093542;28;20208;-80
2024/02/14 11:44:05;;;;;;;25.47;18.37;;;15.70;89.00;;;;;;5082674;28;20234;-81
2024/02/14 11:46:38;;;;;;;22.67;17.70;;;15.80;88.70;;;;;;5086437;28;20242;-81
2024/02/14 11:49:06;;;;;;;25.50;18.17;;;15.90;88.30;;;;;;5083249;28;20207;-81
2024/02/14 11:51:37;;;;;;;22.30;17.67;;;15.90;87.40;;;;;;5074503;28;20219;-80
2024/02/14 11:54:06;;;;;;;20.27;16.00;;;15.90;87.50;;;;;;5075812;28;20548;-80
2024/02/14 11:56:39;;;;;;;23.73;17.70;;;16.00;87.60;;;;;;5079772;28;20284;-81
2024/02/14 11:59:12;;;;;;;19.90;16.77;;;16.00;87.20;;;;;;5055050;28;20688;-80
2024/02/14 12:01:40;;;;;;;22.10;17.60;;;16.10;86.40;;;;;;4997887;28;20230;-81
2024/02/14 12:04:10;;;;;;;28.70;17.67;;;16.20;85.70;;;;;;5009994;28;20296;-82
2024/02/14 12:06:43;;;;;;;22.53;16.23;;;16.20;84.90;;;;;;5009603;28;20638;-81
2024/02/14 12:09:15;;;;;;;23.27;17.17;;;16.20;84.60;;;;;;5008530;28;20291;-81
2024/02/14 12:11:45;;;;;;;24.43;17.47;;;16.20;85.10;;;;;;4998121;28;20224;-81
2024/02/14 12:14:18;;;;;;;22.30;16.70;;;16.30;85.40;;;;;;5032034;28;20236;-82
2024/02/14 12:16:46;;;;;;;27.53;17.37;;;16.30;84.50;;;;;;5031977;28;20307;-81
2024/02/14 12:19:16;;;;;;;20.33;16.37;;;16.40;84.30;;;;;;5017680;28;20700;-80
2024/02/14 12:21:48;;;;;;;22.10;16.47;;;16.40;84.30;;;;;;5013529;28;20227;-81
2024/02/14 12:24:17;;;;;;;24.10;18.47;;;16.50;83.70;;;;;;5006765;28;20214;-81
2024/02/14 12:26:48;;;;;;;27.17;18.43;;;16.50;83.60;;;;;;4992954;28;20563;-81
2024/02/14 12:29:21;;;;;;;19.90;16.30;;;16.50;83.10;;;;;;4996695;28;20640;-81
2024/02/14 12:31:50;;;;;;;26.70;18.90;;;16.50;83.40;;;;;;5044363;28;20682;-81
2024/02/14 12:34:21;;;;;;;23.17;17.73;;;16.50;83.60;;;;;;4998981;28;20211;-81
2024/02/14 12:36:53;;;;;;;21.43;17.63;;;16.60;83.60;;;;;;5016057;28;20214;-81
2024/02/14 12:39:22;;;;;;;24.17;18.33;;;16.70;83.60;;;;;;5011046;28;20208;-81
2024/02/14 12:41:52;;;;;;;24.50;17.23;;;16.90;83.30;;;;;;4995817;28;20228;-82
2024/02/14 12:44:22;;;;;;;22.03;16.47;;;16.90;82.70;;;;;;4998718;28;20212;-82
2024/02/14 12:46:55;;;;;;;21.33;16.17;;;16.90;81.60;;;;;;5026210;28;20215;-81
2024/02/14 12:49:26;;;;;;;23.87;17.93;;;16.90;82.00;;;;;;5013124;28;20216;-81
2024/02/14 12:51:58;;;;;;;24.30;18.67;;;16.90;81.50;;;;;;4991801;28;20635;-81